sensor_id;sensor_type;location;lat;lon;timestamp;P1;durP1;ratioP1;P2;durP2;ratioP2
54430;SDS011;40342;52.998;5.862;2023-06-24T00:02:16;5.30;;;4.80;;
54430;SDS011;40342;52.998;5.862;2023-06-24T00:04:41;5.38;;;4.25;;
54430;SDS011;40342;52.998;5.862;2023-06-24T00:07:07;4.78;;;4.38;;
54430;SDS011;40342;52.998;5.862;2023-06-24T00:09:33;5.88;;;4.50;;
54430;SDS011;40342;52.998;5.862;2023-06-24T00:11:58;5.35;;;4.57;;
54430;SDS011;40342;52.998;5.862;2023-06-24T00:14:25;8.27;;;4.78;;
54430;SDS011;40342;52.998;5.862;2023-06-24T00:16:51;5.10;;;4.60;;
54430;SDS011;40342;52.998;5.862;2023-06-24T00:19:21;3.67;;;3.40;;
54430;SDS011;40342;52.998;5.862;2023-06-24T00:21:51;4.18;;;3.78;;
54430;SDS011;40342;52.998;5.862;2023-06-24T00:24:18;3.95;;;3.72;;
54430;SDS011;40342;52.998;5.862;2023-06-24T00:26:45;4.03;;;3.72;;
54430;SDS011;40342;52.998;5.862;2023-06-24T00:29:11;4.85;;;4.30;;
54430;SDS011;40342;52.998;5.862;2023-06-24T00:31:36;5.38;;;4.82;;
54430;SDS011;40342;52.998;5.862;2023-06-24T00:34:02;5.65;;;4.82;;
54430;SDS011;40342;52.998;5.862;2023-06-24T00:36:28;5.10;;;4.65;;
54430;SDS011;40342;52.998;5.862;2023-06-24T00:38:55;9.18;;;5.43;;
54430;SDS011;40342;52.998;5.862;2023-06-24T00:41:20;6.18;;;5.57;;
54430;SDS011;40342;52.998;5.862;2023-06-24T00:43:46;5.50;;;5.05;;
54430;SDS011;40342;52.998;5.862;2023-06-24T00:46:11;6.93;;;5.50;;
54430;SDS011;40342;52.998;5.862;2023-06-24T00:48:38;7.72;;;4.75;;
54430;SDS011;40342;52.998;5.862;2023-06-24T00:51:04;5.45;;;4.75;;
54430;SDS011;40342;52.998;5.862;2023-06-24T00:53:30;5.50;;;5.00;;
54430;SDS011;40342;52.998;5.862;2023-06-24T00:55:55;5.55;;;5.05;;
54430;SDS011;40342;52.998;5.862;2023-06-24T00:58:26;5.20;;;4.70;;
54430;SDS011;40342;52.998;5.862;2023-06-24T01:00:55;7.18;;;4.78;;
54430;SDS011;40342;52.998;5.862;2023-06-24T01:03:26;5.75;;;5.25;;
54430;SDS011;40342;52.998;5.862;2023-06-24T01:05:53;6.47;;;5.40;;
54430;SDS011;40342;52.998;5.862;2023-06-24T01:08:19;5.93;;;5.35;;
54430;SDS011;40342;52.998;5.862;2023-06-24T01:10:47;7.00;;;6.05;;
54430;SDS011;40342;52.998;5.862;2023-06-24T01:13:14;6.10;;;5.50;;
54430;SDS011;40342;52.998;5.862;2023-06-24T01:15:40;6.70;;;6.13;;
54430;SDS011;40342;52.998;5.862;2023-06-24T01:26:44;7.45;;;6.75;;
54430;SDS011;40342;52.998;5.862;2023-06-24T01:35:01;6.78;;;5.90;;
54430;SDS011;40342;52.998;5.862;2023-06-24T01:37:37;6.70;;;6.03;;
54430;SDS011;40342;52.998;5.862;2023-06-24T01:40:26;6.60;;;6.05;;
54430;SDS011;40342;52.998;5.862;2023-06-24T01:42:52;5.88;;;5.38;;
54430;SDS011;40342;52.998;5.862;2023-06-24T01:45:23;7.13;;;5.88;;
54430;SDS011;40342;52.998;5.862;2023-06-24T01:50:44;6.50;;;5.95;;
54430;SDS011;40342;52.998;5.862;2023-06-24T01:53:34;6.40;;;5.80;;
54430;SDS011;40342;52.998;5.862;2023-06-24T01:56:04;7.32;;;5.93;;
54430;SDS011;40342;52.998;5.862;2023-06-24T01:58:32;6.63;;;6.03;;
54430;SDS011;40342;52.998;5.862;2023-06-24T02:01:00;6.80;;;5.70;;
54430;SDS011;40342;52.998;5.862;2023-06-24T02:03:27;6.80;;;6.20;;
54430;SDS011;40342;52.998;5.862;2023-06-24T02:05:53;7.07;;;6.43;;
54430;SDS011;40342;52.998;5.862;2023-06-24T02:08:20;8.15;;;6.80;;
54430;SDS011;40342;52.998;5.862;2023-06-24T02:10:47;6.78;;;5.90;;
54430;SDS011;40342;52.998;5.862;2023-06-24T02:13:15;6.60;;;6.10;;
54430;SDS011;40342;52.998;5.862;2023-06-24T02:15:42;7.03;;;6.43;;
54430;SDS011;40342;52.998;5.862;2023-06-24T02:18:10;7.10;;;6.50;;
54430;SDS011;40342;52.998;5.862;2023-06-24T02:20:38;6.53;;;5.90;;
54430;SDS011;40342;52.998;5.862;2023-06-24T02:23:06;6.60;;;5.95;;
54430;SDS011;40342;52.998;5.862;2023-06-24T02:25:33;6.75;;;6.20;;
54430;SDS011;40342;52.998;5.862;2023-06-24T02:27:59;7.07;;;6.30;;
54430;SDS011;40342;52.998;5.862;2023-06-24T02:30:25;6.93;;;6.18;;
54430;SDS011;40342;52.998;5.862;2023-06-24T02:32:52;7.35;;;6.30;;
54430;SDS011;40342;52.998;5.862;2023-06-24T02:35:18;7.53;;;6.70;;
54430;SDS011;40342;52.998;5.862;2023-06-24T02:37:44;7.03;;;6.47;;
54430;SDS011;40342;52.998;5.862;2023-06-24T02:40:09;7.60;;;6.60;;
54430;SDS011;40342;52.998;5.862;2023-06-24T02:42:36;7.50;;;6.80;;
54430;SDS011;40342;52.998;5.862;2023-06-24T02:45:01;8.23;;;6.70;;
54430;SDS011;40342;52.998;5.862;2023-06-24T02:47:28;7.63;;;6.85;;
54430;SDS011;40342;52.998;5.862;2023-06-24T02:49:55;8.10;;;7.30;;
54430;SDS011;40342;52.998;5.862;2023-06-24T02:52:22;7.88;;;6.85;;
54430;SDS011;40342;52.998;5.862;2023-06-24T02:54:49;7.78;;;7.07;;
54430;SDS011;40342;52.998;5.862;2023-06-24T02:57:14;9.00;;;7.50;;
54430;SDS011;40342;52.998;5.862;2023-06-24T02:59:40;9.68;;;7.50;;
54430;SDS011;40342;52.998;5.862;2023-06-24T03:02:06;8.07;;;7.38;;
54430;SDS011;40342;52.998;5.862;2023-06-24T03:04:32;8.68;;;7.78;;
54430;SDS011;40342;52.998;5.862;2023-06-24T03:06:58;8.70;;;7.28;;
54430;SDS011;40342;52.998;5.862;2023-06-24T03:09:26;7.78;;;6.90;;
54430;SDS011;40342;52.998;5.862;2023-06-24T03:11:52;10.05;;;7.93;;
54430;SDS011;40342;52.998;5.862;2023-06-24T03:14:18;7.68;;;7.00;;
54430;SDS011;40342;52.998;5.862;2023-06-24T03:16:44;8.55;;;7.57;;
54430;SDS011;40342;52.998;5.862;2023-06-24T03:19:10;9.00;;;7.88;;
54430;SDS011;40342;52.998;5.862;2023-06-24T03:21:35;9.80;;;7.82;;
54430;SDS011;40342;52.998;5.862;2023-06-24T03:24:01;10.02;;;7.88;;
54430;SDS011;40342;52.998;5.862;2023-06-24T03:26:34;9.82;;;8.10;;
54430;SDS011;40342;52.998;5.862;2023-06-24T03:29:00;9.13;;;8.32;;
54430;SDS011;40342;52.998;5.862;2023-06-24T03:31:26;9.05;;;8.18;;
54430;SDS011;40342;52.998;5.862;2023-06-24T03:33:52;9.15;;;8.27;;
54430;SDS011;40342;52.998;5.862;2023-06-24T03:36:17;10.93;;;8.77;;
54430;SDS011;40342;52.998;5.862;2023-06-24T03:38:43;9.30;;;8.27;;
54430;SDS011;40342;52.998;5.862;2023-06-24T03:41:09;12.18;;;9.00;;
54430;SDS011;40342;52.998;5.862;2023-06-24T03:43:34;11.27;;;9.73;;
54430;SDS011;40342;52.998;5.862;2023-06-24T03:46:00;10.15;;;9.15;;
54430;SDS011;40342;52.998;5.862;2023-06-24T03:48:25;9.38;;;8.43;;
54430;SDS011;40342;52.998;5.862;2023-06-24T03:50:51;10.40;;;9.40;;
54430;SDS011;40342;52.998;5.862;2023-06-24T03:53:16;11.43;;;9.15;;
54430;SDS011;40342;52.998;5.862;2023-06-24T03:55:42;10.40;;;9.35;;
54430;SDS011;40342;52.998;5.862;2023-06-24T03:58:08;10.48;;;9.48;;
54430;SDS011;40342;52.998;5.862;2023-06-24T04:00:33;10.30;;;9.40;;
54430;SDS011;40342;52.998;5.862;2023-06-24T04:03:04;9.98;;;8.98;;
54430;SDS011;40342;52.998;5.862;2023-06-24T04:05:29;10.10;;;9.20;;
54430;SDS011;40342;52.998;5.862;2023-06-24T04:07:55;10.07;;;9.10;;
54430;SDS011;40342;52.998;5.862;2023-06-24T04:10:20;11.65;;;9.25;;
54430;SDS011;40342;52.998;5.862;2023-06-24T04:12:46;10.30;;;9.40;;
54430;SDS011;40342;52.998;5.862;2023-06-24T04:15:12;9.13;;;8.27;;
54430;SDS011;40342;52.998;5.862;2023-06-24T04:17:37;10.52;;;9.43;;
54430;SDS011;40342;52.998;5.862;2023-06-24T04:20:03;10.32;;;9.35;;
54430;SDS011;40342;52.998;5.862;2023-06-24T04:22:32;9.23;;;8.43;;
54430;SDS011;40342;52.998;5.862;2023-06-24T04:24:57;10.10;;;9.20;;
54430;SDS011;40342;52.998;5.862;2023-06-24T04:27:23;9.50;;;8.57;;
54430;SDS011;40342;52.998;5.862;2023-06-24T04:29:48;9.50;;;8.60;;
54430;SDS011;40342;52.998;5.862;2023-06-24T04:32:14;9.45;;;8.55;;
54430;SDS011;40342;52.998;5.862;2023-06-24T04:34:39;10.48;;;9.00;;
54430;SDS011;40342;52.998;5.862;2023-06-24T04:37:05;8.73;;;7.93;;
54430;SDS011;40342;52.998;5.862;2023-06-24T04:39:31;15.20;;;8.55;;
54430;SDS011;40342;52.998;5.862;2023-06-24T04:41:56;10.70;;;8.90;;
54430;SDS011;40342;52.998;5.862;2023-06-24T04:44:22;9.32;;;8.38;;
54430;SDS011;40342;52.998;5.862;2023-06-24T04:46:47;11.00;;;10.05;;
54430;SDS011;40342;52.998;5.862;2023-06-24T04:49:13;9.45;;;8.55;;
54430;SDS011;40342;52.998;5.862;2023-06-24T04:51:38;8.95;;;8.13;;
54430;SDS011;40342;52.998;5.862;2023-06-24T04:54:05;10.55;;;9.57;;
54430;SDS011;40342;52.998;5.862;2023-06-24T04:56:32;10.35;;;9.18;;
54430;SDS011;40342;52.998;5.862;2023-06-24T04:58:59;10.27;;;9.18;;
54430;SDS011;40342;52.998;5.862;2023-06-24T05:01:25;10.68;;;9.63;;
54430;SDS011;40342;52.998;5.862;2023-06-24T05:03:51;10.63;;;9.65;;
54430;SDS011;40342;52.998;5.862;2023-06-24T05:06:17;11.57;;;9.50;;
54430;SDS011;40342;52.998;5.862;2023-06-24T05:08:42;10.20;;;9.25;;
54430;SDS011;40342;52.998;5.862;2023-06-24T05:11:08;10.55;;;9.45;;
54430;SDS011;40342;52.998;5.862;2023-06-24T05:13:33;17.15;;;9.13;;
54430;SDS011;40342;52.998;5.862;2023-06-24T05:15:59;10.38;;;9.38;;
54430;SDS011;40342;52.998;5.862;2023-06-24T05:18:24;10.35;;;9.35;;
54430;SDS011;40342;52.998;5.862;2023-06-24T05:20:50;10.23;;;9.13;;
54430;SDS011;40342;52.998;5.862;2023-06-24T05:23:15;10.82;;;9.73;;
54430;SDS011;40342;52.998;5.862;2023-06-24T05:25:41;9.90;;;9.00;;
54430;SDS011;40342;52.998;5.862;2023-06-24T05:28:06;10.05;;;9.18;;
54430;SDS011;40342;52.998;5.862;2023-06-24T05:30:32;10.10;;;9.20;;
54430;SDS011;40342;52.998;5.862;2023-06-24T05:32:57;10.52;;;8.95;;
54430;SDS011;40342;52.998;5.862;2023-06-24T05:35:23;9.38;;;8.48;;
54430;SDS011;40342;52.998;5.862;2023-06-24T05:37:48;10.00;;;9.05;;
54430;SDS011;40342;52.998;5.862;2023-06-24T05:40:14;10.70;;;9.63;;
54430;SDS011;40342;52.998;5.862;2023-06-24T05:42:40;9.63;;;8.63;;
54430;SDS011;40342;52.998;5.862;2023-06-24T05:45:05;9.43;;;8.63;;
54430;SDS011;40342;52.998;5.862;2023-06-24T05:47:32;10.77;;;9.00;;
54430;SDS011;40342;52.998;5.862;2023-06-24T05:49:57;10.30;;;9.30;;
54430;SDS011;40342;52.998;5.862;2023-06-24T05:52:23;10.15;;;9.05;;
54430;SDS011;40342;52.998;5.862;2023-06-24T05:54:49;9.02;;;8.13;;
54430;SDS011;40342;52.998;5.862;2023-06-24T05:57:15;10.50;;;9.50;;
54430;SDS011;40342;52.998;5.862;2023-06-24T05:59:41;10.27;;;9.25;;
54430;SDS011;40342;52.998;5.862;2023-06-24T06:02:06;10.45;;;9.48;;
54430;SDS011;40342;52.998;5.862;2023-06-24T06:04:32;9.52;;;8.70;;
54430;SDS011;40342;52.998;5.862;2023-06-24T06:06:57;9.57;;;8.63;;
54430;SDS011;40342;52.998;5.862;2023-06-24T06:09:23;10.38;;;9.38;;
54430;SDS011;40342;52.998;5.862;2023-06-24T06:11:49;9.88;;;8.98;;
54430;SDS011;40342;52.998;5.862;2023-06-24T06:14:14;10.13;;;9.13;;
54430;SDS011;40342;52.998;5.862;2023-06-24T06:16:40;9.95;;;8.95;;
54430;SDS011;40342;52.998;5.862;2023-06-24T06:19:05;11.13;;;9.80;;
54430;SDS011;40342;52.998;5.862;2023-06-24T06:21:31;9.98;;;9.07;;
54430;SDS011;40342;52.998;5.862;2023-06-24T06:23:57;10.90;;;9.90;;
54430;SDS011;40342;52.998;5.862;2023-06-24T06:26:22;10.77;;;9.77;;
54430;SDS011;40342;52.998;5.862;2023-06-24T06:28:48;15.30;;;10.20;;
54430;SDS011;40342;52.998;5.862;2023-06-24T06:31:14;10.57;;;9.55;;
54430;SDS011;40342;52.998;5.862;2023-06-24T06:33:40;11.60;;;9.80;;
54430;SDS011;40342;52.998;5.862;2023-06-24T06:36:06;10.75;;;9.50;;
54430;SDS011;40342;52.998;5.862;2023-06-24T06:38:32;11.65;;;9.82;;
54430;SDS011;40342;52.998;5.862;2023-06-24T06:40:58;11.38;;;8.70;;
54430;SDS011;40342;52.998;5.862;2023-06-24T06:43:24;10.23;;;9.23;;
54430;SDS011;40342;52.998;5.862;2023-06-24T06:45:50;9.93;;;8.98;;
54430;SDS011;40342;52.998;5.862;2023-06-24T06:48:15;9.88;;;8.98;;
54430;SDS011;40342;52.998;5.862;2023-06-24T06:50:41;10.18;;;9.27;;
54430;SDS011;40342;52.998;5.862;2023-06-24T06:53:06;9.48;;;8.57;;
54430;SDS011;40342;52.998;5.862;2023-06-24T06:55:32;9.57;;;8.57;;
54430;SDS011;40342;52.998;5.862;2023-06-24T06:57:58;9.38;;;8.50;;
54430;SDS011;40342;52.998;5.862;2023-06-24T07:00:23;10.30;;;9.30;;
54430;SDS011;40342;52.998;5.862;2023-06-24T07:02:49;10.68;;;9.57;;
54430;SDS011;40342;52.998;5.862;2023-06-24T07:05:14;9.98;;;8.95;;
54430;SDS011;40342;52.998;5.862;2023-06-24T07:07:40;9.63;;;8.82;;
54430;SDS011;40342;52.998;5.862;2023-06-24T07:10:06;9.60;;;8.60;;
54430;SDS011;40342;52.998;5.862;2023-06-24T07:12:32;10.30;;;8.23;;
54430;SDS011;40342;52.998;5.862;2023-06-24T07:14:58;11.88;;;8.35;;
54430;SDS011;40342;52.998;5.862;2023-06-24T07:17:23;9.85;;;8.30;;
54430;SDS011;40342;52.998;5.862;2023-06-24T07:19:49;7.70;;;6.90;;
54430;SDS011;40342;52.998;5.862;2023-06-24T07:22:14;7.13;;;6.53;;
54430;SDS011;40342;52.998;5.862;2023-06-24T07:24:41;7.70;;;6.55;;
54430;SDS011;40342;52.998;5.862;2023-06-24T07:27:07;7.70;;;6.93;;
54430;SDS011;40342;52.998;5.862;2023-06-24T07:29:32;7.20;;;6.20;;
54430;SDS011;40342;52.998;5.862;2023-06-24T07:31:58;8.05;;;6.40;;
54430;SDS011;40342;52.998;5.862;2023-06-24T07:34:23;7.18;;;6.45;;
54430;SDS011;40342;52.998;5.862;2023-06-24T07:36:49;8.18;;;6.13;;
54430;SDS011;40342;52.998;5.862;2023-06-24T07:39:16;8.02;;;6.43;;
54430;SDS011;40342;52.998;5.862;2023-06-24T07:41:42;8.73;;;6.50;;
54430;SDS011;40342;52.998;5.862;2023-06-24T07:44:08;7.70;;;6.35;;
54430;SDS011;40342;52.998;5.862;2023-06-24T07:46:34;7.30;;;5.97;;
54430;SDS011;40342;52.998;5.862;2023-06-24T07:48:59;6.50;;;5.82;;
54430;SDS011;40342;52.998;5.862;2023-06-24T07:51:25;7.10;;;6.50;;
54430;SDS011;40342;52.998;5.862;2023-06-24T07:53:51;7.05;;;6.35;;
54430;SDS011;40342;52.998;5.862;2023-06-24T07:56:17;7.65;;;6.40;;
54430;SDS011;40342;52.998;5.862;2023-06-24T07:58:43;7.07;;;6.47;;
54430;SDS011;40342;52.998;5.862;2023-06-24T08:01:08;8.32;;;6.10;;
54430;SDS011;40342;52.998;5.862;2023-06-24T08:03:34;7.97;;;6.50;;
54430;SDS011;40342;52.998;5.862;2023-06-24T08:06:01;7.85;;;6.25;;
54430;SDS011;40342;52.998;5.862;2023-06-24T08:08:27;6.28;;;5.68;;
54430;SDS011;40342;52.998;5.862;2023-06-24T08:10:53;5.93;;;5.43;;
54430;SDS011;40342;52.998;5.862;2023-06-24T08:13:18;13.10;;;6.75;;
54430;SDS011;40342;52.998;5.862;2023-06-24T08:15:44;6.40;;;5.80;;
54430;SDS011;40342;52.998;5.862;2023-06-24T08:18:10;6.05;;;5.45;;
54430;SDS011;40342;52.998;5.862;2023-06-24T08:20:35;6.55;;;5.43;;
54430;SDS011;40342;52.998;5.862;2023-06-24T08:23:03;5.60;;;5.10;;
54430;SDS011;40342;52.998;5.862;2023-06-24T08:25:29;5.20;;;4.70;;
54430;SDS011;40342;52.998;5.862;2023-06-24T08:27:55;7.85;;;4.60;;
54430;SDS011;40342;52.998;5.862;2023-06-24T08:30:21;5.50;;;4.97;;
54430;SDS011;40342;52.998;5.862;2023-06-24T08:32:46;5.65;;;4.55;;
54430;SDS011;40342;52.998;5.862;2023-06-24T08:35:12;4.72;;;4.32;;
54430;SDS011;40342;52.998;5.862;2023-06-24T08:37:38;4.63;;;4.20;;
54430;SDS011;40342;52.998;5.862;2023-06-24T08:40:03;5.15;;;4.65;;
54430;SDS011;40342;52.998;5.862;2023-06-24T08:42:30;6.22;;;4.75;;
54430;SDS011;40342;52.998;5.862;2023-06-24T08:44:56;5.22;;;4.50;;
54430;SDS011;40342;52.998;5.862;2023-06-24T08:47:23;5.18;;;4.38;;
54430;SDS011;40342;52.998;5.862;2023-06-24T08:49:52;4.72;;;4.32;;
54430;SDS011;40342;52.998;5.862;2023-06-24T08:52:21;5.32;;;4.70;;
54430;SDS011;40342;52.998;5.862;2023-06-24T08:54:51;5.00;;;4.40;;
54430;SDS011;40342;52.998;5.862;2023-06-24T08:57:20;5.78;;;4.28;;
54430;SDS011;40342;52.998;5.862;2023-06-24T08:59:45;5.18;;;4.40;;
54430;SDS011;40342;52.998;5.862;2023-06-24T09:02:11;4.80;;;4.30;;
54430;SDS011;40342;52.998;5.862;2023-06-24T09:04:38;6.22;;;4.75;;
54430;SDS011;40342;52.998;5.862;2023-06-24T09:07:04;4.22;;;3.80;;
54430;SDS011;40342;52.998;5.862;2023-06-24T09:09:30;4.38;;;3.97;;
54430;SDS011;40342;52.998;5.862;2023-06-24T09:14:26;3.90;;;3.60;;
54430;SDS011;40342;52.998;5.862;2023-06-24T09:16:58;3.92;;;3.63;;
54430;SDS011;40342;52.998;5.862;2023-06-24T09:19:31;4.03;;;3.60;;
54430;SDS011;40342;52.998;5.862;2023-06-24T09:22:05;3.50;;;3.30;;
54430;SDS011;40342;52.998;5.862;2023-06-24T09:24:34;4.60;;;3.65;;
54430;SDS011;40342;52.998;5.862;2023-06-24T09:27:02;3.55;;;3.25;;
54430;SDS011;40342;52.998;5.862;2023-06-24T09:29:31;2.92;;;2.63;;
54430;SDS011;40342;52.998;5.862;2023-06-24T09:31:59;6.40;;;3.25;;
54430;SDS011;40342;52.998;5.862;2023-06-24T09:34:25;4.13;;;3.10;;
54430;SDS011;40342;52.998;5.862;2023-06-24T09:36:53;4.82;;;3.22;;
54430;SDS011;40342;52.998;5.862;2023-06-24T09:39:20;3.40;;;3.10;;
54430;SDS011;40342;52.998;5.862;2023-06-24T09:41:50;5.07;;;3.38;;
54430;SDS011;40342;52.998;5.862;2023-06-24T09:44:16;7.03;;;3.38;;
54430;SDS011;40342;52.998;5.862;2023-06-24T09:46:44;3.10;;;2.90;;
54430;SDS011;40342;52.998;5.862;2023-06-24T09:49:09;4.35;;;2.67;;
54430;SDS011;40342;52.998;5.862;2023-06-24T09:51:39;4.32;;;3.70;;
54430;SDS011;40342;52.998;5.862;2023-06-24T09:54:09;5.55;;;3.25;;
54430;SDS011;40342;52.998;5.862;2023-06-24T09:56:36;5.13;;;3.50;;
54430;SDS011;40342;52.998;5.862;2023-06-24T09:59:04;5.40;;;3.30;;
54430;SDS011;40342;52.998;5.862;2023-06-24T10:01:31;6.72;;;3.60;;
54430;SDS011;40342;52.998;5.862;2023-06-24T10:04:00;4.10;;;3.30;;
54430;SDS011;40342;52.998;5.862;2023-06-24T10:06:27;5.80;;;3.25;;
54430;SDS011;40342;52.998;5.862;2023-06-24T10:08:53;3.88;;;3.50;;
54430;SDS011;40342;52.998;5.862;2023-06-24T10:11:19;4.53;;;3.85;;
54430;SDS011;40342;52.998;5.862;2023-06-24T10:13:46;3.72;;;3.33;;
54430;SDS011;40342;52.998;5.862;2023-06-24T10:16:11;6.00;;;4.05;;
54430;SDS011;40342;52.998;5.862;2023-06-24T10:18:38;5.35;;;3.20;;
54430;SDS011;40342;52.998;5.862;2023-06-24T10:21:05;5.78;;;3.28;;
54430;SDS011;40342;52.998;5.862;2023-06-24T10:34:26;7.15;;;3.50;;
54430;SDS011;40342;52.998;5.862;2023-06-24T10:37:31;3.72;;;3.42;;
54430;SDS011;40342;52.998;5.862;2023-06-24T10:39:58;4.20;;;3.80;;
54430;SDS011;40342;52.998;5.862;2023-06-24T10:42:32;4.50;;;3.70;;
54430;SDS011;40342;52.998;5.862;2023-06-24T10:45:22;5.20;;;4.70;;
54430;SDS011;40342;52.998;5.862;2023-06-24T10:47:51;5.97;;;4.22;;
54430;SDS011;40342;52.998;5.862;2023-06-24T10:50:21;4.85;;;3.80;;
54430;SDS011;40342;52.998;5.862;2023-06-24T10:52:49;5.63;;;5.07;;
54430;SDS011;40342;52.998;5.862;2023-06-24T10:55:21;5.57;;;4.20;;
54430;SDS011;40342;52.998;5.862;2023-06-24T10:57:48;5.07;;;4.53;;
54430;SDS011;40342;52.998;5.862;2023-06-24T11:00:14;4.53;;;3.78;;
54430;SDS011;40342;52.998;5.862;2023-06-24T11:02:40;4.90;;;4.28;;
54430;SDS011;40342;52.998;5.862;2023-06-24T11:05:06;5.80;;;4.03;;
54430;SDS011;40342;52.998;5.862;2023-06-24T11:07:33;3.22;;;2.90;;
54430;SDS011;40342;52.998;5.862;2023-06-24T11:10:06;3.03;;;2.70;;
54430;SDS011;40342;52.998;5.862;2023-06-24T11:12:36;7.85;;;5.18;;
54430;SDS011;40342;52.998;5.862;2023-06-24T11:15:03;5.32;;;4.80;;
54430;SDS011;40342;52.998;5.862;2023-06-24T11:17:30;7.57;;;4.78;;
54430;SDS011;40342;52.998;5.862;2023-06-24T11:19:57;7.35;;;4.80;;
54430;SDS011;40342;52.998;5.862;2023-06-24T11:22:24;6.07;;;5.35;;
54430;SDS011;40342;52.998;5.862;2023-06-24T11:24:50;7.43;;;5.70;;
54430;SDS011;40342;52.998;5.862;2023-06-24T11:27:16;5.60;;;5.10;;
54430;SDS011;40342;52.998;5.862;2023-06-24T11:29:48;4.93;;;4.15;;
54430;SDS011;40342;52.998;5.862;2023-06-24T11:32:16;6.10;;;4.63;;
54430;SDS011;40342;52.998;5.862;2023-06-24T11:34:41;6.60;;;5.10;;
54430;SDS011;40342;52.998;5.862;2023-06-24T11:37:11;9.30;;;4.68;;
54430;SDS011;40342;52.998;5.862;2023-06-24T11:39:38;4.40;;;3.67;;
54430;SDS011;40342;52.998;5.862;2023-06-24T11:42:05;3.42;;;3.13;;
54430;SDS011;40342;52.998;5.862;2023-06-24T11:44:33;3.33;;;3.10;;
54430;SDS011;40342;52.998;5.862;2023-06-24T11:47:05;3.80;;;2.67;;
54430;SDS011;40342;52.998;5.862;2023-06-24T11:49:31;4.65;;;2.55;;
54430;SDS011;40342;52.998;5.862;2023-06-24T11:51:57;3.28;;;2.95;;
54430;SDS011;40342;52.998;5.862;2023-06-24T11:54:23;3.50;;;3.20;;
54430;SDS011;40342;52.998;5.862;2023-06-24T11:56:52;3.78;;;3.42;;
54430;SDS011;40342;52.998;5.862;2023-06-24T11:59:19;5.88;;;4.20;;
54430;SDS011;40342;52.998;5.862;2023-06-24T12:01:53;4.50;;;3.30;;
54430;SDS011;40342;52.998;5.862;2023-06-24T12:04:21;3.30;;;3.08;;
54430;SDS011;40342;52.998;5.862;2023-06-24T12:06:51;4.75;;;3.50;;
54430;SDS011;40342;52.998;5.862;2023-06-24T12:09:17;4.53;;;3.17;;
54430;SDS011;40342;52.998;5.862;2023-06-24T12:11:43;4.45;;;2.80;;
54430;SDS011;40342;52.998;5.862;2023-06-24T12:14:08;4.75;;;3.30;;
54430;SDS011;40342;52.998;5.862;2023-06-24T12:16:34;5.13;;;3.92;;
54430;SDS011;40342;52.998;5.862;2023-06-24T12:19:00;5.00;;;4.30;;
54430;SDS011;40342;52.998;5.862;2023-06-24T12:21:25;4.00;;;3.00;;
54430;SDS011;40342;52.998;5.862;2023-06-24T12:23:51;3.50;;;3.22;;
54430;SDS011;40342;52.998;5.862;2023-06-24T12:26:16;4.32;;;3.10;;
54430;SDS011;40342;52.998;5.862;2023-06-24T12:28:42;3.90;;;3.50;;
54430;SDS011;40342;52.998;5.862;2023-06-24T12:31:07;4.95;;;4.10;;
54430;SDS011;40342;52.998;5.862;2023-06-24T12:33:33;4.10;;;3.80;;
54430;SDS011;40342;52.998;5.862;2023-06-24T12:35:59;4.32;;;3.92;;
54430;SDS011;40342;52.998;5.862;2023-06-24T12:38:24;4.13;;;3.72;;
54430;SDS011;40342;52.998;5.862;2023-06-24T12:40:50;4.50;;;3.55;;
54430;SDS011;40342;52.998;5.862;2023-06-24T12:43:16;4.55;;;4.07;;
54430;SDS011;40342;52.998;5.862;2023-06-24T12:45:41;7.82;;;4.18;;
54430;SDS011;40342;52.998;5.862;2023-06-24T12:48:10;4.70;;;4.00;;
54430;SDS011;40342;52.998;5.862;2023-06-24T12:50:37;9.93;;;4.03;;
54430;SDS011;40342;52.998;5.862;2023-06-24T12:53:03;7.25;;;3.88;;
54430;SDS011;40342;52.998;5.862;2023-06-24T12:55:29;3.50;;;3.20;;
54430;SDS011;40342;52.998;5.862;2023-06-24T12:57:55;3.42;;;2.47;;
54430;SDS011;40342;52.998;5.862;2023-06-24T13:00:22;4.20;;;2.70;;
54430;SDS011;40342;52.998;5.862;2023-06-24T13:02:48;5.00;;;3.08;;
54430;SDS011;40342;52.998;5.862;2023-06-24T13:05:15;6.20;;;4.10;;
54430;SDS011;40342;52.998;5.862;2023-06-24T13:07:40;5.63;;;4.20;;
54430;SDS011;40342;52.998;5.862;2023-06-24T13:10:06;15.43;;;4.20;;
54430;SDS011;40342;52.998;5.862;2023-06-24T13:12:32;5.30;;;4.22;;
54430;SDS011;40342;52.998;5.862;2023-06-24T13:14:58;6.90;;;3.90;;
54430;SDS011;40342;52.998;5.862;2023-06-24T13:17:24;5.00;;;4.05;;
54430;SDS011;40342;52.998;5.862;2023-06-24T13:19:50;5.25;;;4.10;;
54430;SDS011;40342;52.998;5.862;2023-06-24T13:22:16;4.88;;;3.35;;
54430;SDS011;40342;52.998;5.862;2023-06-24T13:24:41;5.38;;;4.80;;
54430;SDS011;40342;52.998;5.862;2023-06-24T13:27:07;3.65;;;3.30;;
54430;SDS011;40342;52.998;5.862;2023-06-24T13:29:33;4.53;;;3.47;;
54430;SDS011;40342;52.998;5.862;2023-06-24T13:31:58;2.92;;;2.55;;
54430;SDS011;40342;52.998;5.862;2023-06-24T13:34:24;4.40;;;4.00;;
54430;SDS011;40342;52.998;5.862;2023-06-24T13:36:49;4.28;;;3.83;;
54430;SDS011;40342;52.998;5.862;2023-06-24T13:39:15;4.85;;;4.28;;
54430;SDS011;40342;52.998;5.862;2023-06-24T13:41:42;6.00;;;4.22;;
54430;SDS011;40342;52.998;5.862;2023-06-24T13:44:09;4.72;;;3.53;;
54430;SDS011;40342;52.998;5.862;2023-06-24T13:46:34;5.10;;;3.50;;
54430;SDS011;40342;52.998;5.862;2023-06-24T13:49:00;4.43;;;3.50;;
54430;SDS011;40342;52.998;5.862;2023-06-24T13:51:27;5.05;;;3.45;;
54430;SDS011;40342;52.998;5.862;2023-06-24T13:53:53;7.20;;;3.20;;
54430;SDS011;40342;52.998;5.862;2023-06-24T13:56:22;4.28;;;2.70;;
54430;SDS011;40342;52.998;5.862;2023-06-24T13:58:49;3.78;;;2.78;;
54430;SDS011;40342;52.998;5.862;2023-06-24T14:01:15;3.40;;;3.10;;
54430;SDS011;40342;52.998;5.862;2023-06-24T14:03:41;9.40;;;3.03;;
54430;SDS011;40342;52.998;5.862;2023-06-24T14:06:08;3.92;;;2.65;;
54430;SDS011;40342;52.998;5.862;2023-06-24T14:08:33;3.20;;;2.88;;
54430;SDS011;40342;52.998;5.862;2023-06-24T14:10:59;2.65;;;2.22;;
54430;SDS011;40342;52.998;5.862;2023-06-24T14:13:25;3.97;;;2.50;;
54430;SDS011;40342;52.998;5.862;2023-06-24T14:15:52;3.00;;;2.30;;
54430;SDS011;40342;52.998;5.862;2023-06-24T14:18:18;3.63;;;2.17;;
54430;SDS011;40342;52.998;5.862;2023-06-24T14:20:44;2.60;;;2.40;;
54430;SDS011;40342;52.998;5.862;2023-06-24T14:23:09;2.50;;;2.30;;
54430;SDS011;40342;52.998;5.862;2023-06-24T14:25:35;2.30;;;2.10;;
54430;SDS011;40342;52.998;5.862;2023-06-24T14:28:02;2.85;;;2.22;;
54430;SDS011;40342;52.998;5.862;2023-06-24T14:30:29;3.38;;;2.40;;
54430;SDS011;40342;52.998;5.862;2023-06-24T14:32:55;2.90;;;2.28;;
54430;SDS011;40342;52.998;5.862;2023-06-24T14:35:20;5.82;;;2.50;;
54430;SDS011;40342;52.998;5.862;2023-06-24T14:37:46;3.95;;;3.10;;
54430;SDS011;40342;52.998;5.862;2023-06-24T14:40:11;4.50;;;2.80;;
54430;SDS011;40342;52.998;5.862;2023-06-24T14:42:37;3.25;;;2.53;;
54430;SDS011;40342;52.998;5.862;2023-06-24T14:45:03;3.55;;;2.70;;
54430;SDS011;40342;52.998;5.862;2023-06-24T14:47:28;8.40;;;2.97;;
54430;SDS011;40342;52.998;5.862;2023-06-24T14:49:56;4.07;;;3.10;;
54430;SDS011;40342;52.998;5.862;2023-06-24T14:52:22;3.53;;;2.95;;
54430;SDS011;40342;52.998;5.862;2023-06-24T14:54:48;3.53;;;2.50;;
54430;SDS011;40342;52.998;5.862;2023-06-24T14:57:13;3.53;;;2.67;;
54430;SDS011;40342;52.998;5.862;2023-06-24T14:59:40;4.63;;;2.80;;
54430;SDS011;40342;52.998;5.862;2023-06-24T15:02:07;3.08;;;2.78;;
54430;SDS011;40342;52.998;5.862;2023-06-24T15:04:35;4.18;;;2.80;;
54430;SDS011;40342;52.998;5.862;2023-06-24T15:07:00;2.90;;;2.60;;
54430;SDS011;40342;52.998;5.862;2023-06-24T15:09:26;3.80;;;2.30;;
54430;SDS011;40342;52.998;5.862;2023-06-24T15:11:52;3.10;;;2.30;;
54430;SDS011;40342;52.998;5.862;2023-06-24T15:14:17;4.43;;;2.70;;